createdAt,value
2023-01-30T00:00:37.597Z,-0.84
2023-01-30T00:03:05.992Z,-0.83
2023-01-30T00:05:34.371Z,-0.78
2023-01-30T00:08:02.865Z,-0.82
2023-01-30T00:10:34.594Z,-0.84
2023-01-30T00:13:02.929Z,-0.75
2023-01-30T00:15:31.625Z,-0.80
2023-01-30T00:18:00.029Z,-0.80
2023-01-30T00:20:28.213Z,-0.83
2023-01-30T00:23:00.999Z,-0.80
2023-01-30T00:25:31.622Z,-0.73
2023-01-30T00:28:03.114Z,-0.73
2023-01-30T00:30:32.117Z,-0.76
2023-01-30T00:33:01.084Z,-0.79
2023-01-30T00:35:29.446Z,-0.77
2023-01-30T00:37:59.077Z,-0.81
2023-01-30T00:40:28.631Z,-0.74
2023-01-30T00:43:14.844Z,-0.77
2023-01-30T00:46:03.880Z,-0.79
2023-01-30T00:48:32.937Z,-0.80
2023-01-30T00:51:01.477Z,-0.84
2023-01-30T00:53:29.932Z,-0.83
2023-01-30T00:55:58.184Z,-0.87
2023-01-30T00:58:26.503Z,-0.90
2023-01-30T01:00:56.829Z,-0.87
2023-01-30T01:03:26.187Z,-0.91
2023-01-30T01:05:54.586Z,-0.92
2023-01-30T01:08:24.826Z,-0.87
2023-01-30T01:10:53.094Z,-0.88
2023-01-30T01:13:21.196Z,-0.89
2023-01-30T01:15:51.169Z,-0.84
2023-01-30T01:18:23.390Z,-0.85
2023-01-30T01:20:51.561Z,-0.78
2023-01-30T01:23:19.764Z,-0.80
2023-01-30T01:25:51.287Z,-0.80
2023-01-30T01:28:22.279Z,-0.80
2023-01-30T01:30:50.585Z,-0.78
2023-01-30T01:33:20.380Z,-0.77
2023-01-30T01:35:48.769Z,-0.80
2023-01-30T01:38:17.443Z,-0.71
2023-01-30T01:41:07.417Z,-0.69
2023-01-30T01:43:38.713Z,-0.69
2023-01-30T01:46:13.450Z,-0.69
2023-01-30T01:48:51.236Z,-0.67
2023-01-30T01:51:26.727Z,-0.57
2023-01-30T01:54:03.726Z,-0.57
2023-01-30T01:56:35.010Z,-0.56
2023-01-30T01:59:12.423Z,-0.55
2023-01-30T02:01:42.038Z,-0.52
2023-01-30T02:04:13.225Z,-0.50
2023-01-30T02:06:46.244Z,-0.50
2023-01-30T02:09:16.397Z,-0.39
2023-01-30T02:11:50.804Z,-0.41
2023-01-30T02:14:21.950Z,-0.45
2023-01-30T02:16:53.077Z,-0.44
2023-01-30T02:19:33.194Z,-0.43
2023-01-30T02:22:43.203Z,-0.46
2023-01-30T02:25:34.664Z,-0.40
2023-01-30T02:28:38.895Z,-0.45
2023-01-30T02:31:28.613Z,-0.37
2023-01-30T02:34:10.335Z,-0.45
2023-01-30T02:36:49.499Z,-0.49
2023-01-30T02:39:28.115Z,-0.48
2023-01-30T02:42:04.637Z,-0.37
2023-01-30T02:44:45.028Z,-0.48
2023-01-30T02:47:21.275Z,-0.48
2023-01-30T02:49:55.822Z,-0.50
2023-01-30T02:52:24.304Z,-0.41
2023-01-30T02:54:52.409Z,-0.48
2023-01-30T02:57:22.745Z,-0.47
2023-01-30T02:59:58.000Z,-0.47
2023-01-30T03:02:51.988Z,-0.40
2023-01-30T03:05:31.467Z,-0.41
2023-01-30T03:08:10.375Z,-0.40
2023-01-30T03:10:44.683Z,-0.45
2023-01-30T03:13:21.450Z,-0.30
2023-01-30T03:15:53.656Z,-0.29
2023-01-30T03:18:23.907Z,-0.20
2023-01-30T03:20:53.783Z,-0.23
2023-01-30T03:23:22.481Z,-0.19
2023-01-30T03:25:50.865Z,-0.21
2023-01-30T03:28:22.145Z,-0.30
2023-01-30T03:30:51.393Z,-0.24
2023-01-30T03:33:19.505Z,-0.25
2023-01-30T03:35:53.028Z,-0.26
2023-01-30T03:38:21.803Z,-0.30
2023-01-30T03:40:51.843Z,-0.36
2023-01-30T03:43:22.932Z,-0.33
2023-01-30T03:45:51.783Z,-0.34
2023-01-30T03:48:20.432Z,-0.29
2023-01-30T03:50:49.313Z,-0.37
2023-01-30T03:53:20.791Z,-0.41
2023-01-30T03:55:52.556Z,-0.37
2023-01-30T03:58:26.908Z,-0.36
2023-01-30T04:00:57.355Z,-0.36
2023-01-30T04:03:26.902Z,-0.41
2023-01-30T04:05:59.781Z,-0.38
2023-01-30T04:08:29.387Z,-0.42
2023-01-30T04:10:57.573Z,-0.34
2023-01-30T04:13:25.931Z,-0.37
2023-01-30T04:15:54.158Z,-0.45
2023-01-30T04:18:55.239Z,-0.47
2023-01-30T04:21:26.542Z,-0.47
2023-01-30T04:23:56.186Z,-0.47
2023-01-30T04:26:27.219Z,-0.56
2023-01-30T04:28:55.673Z,-0.52
2023-01-30T04:31:25.773Z,-0.54
2023-01-30T04:34:07.180Z,-0.60
2023-01-30T04:36:36.895Z,-0.58
2023-01-30T04:39:06.858Z,-0.58
2023-01-30T04:41:38.641Z,-0.45
2023-01-30T04:44:07.101Z,-0.55
2023-01-30T04:46:49.936Z,-0.61
2023-01-30T04:49:18.876Z,-0.59
2023-01-30T04:51:48.995Z,-0.57
2023-01-30T04:54:18.742Z,-0.60
2023-01-30T04:56:46.663Z,-0.65
2023-01-30T04:59:14.794Z,-0.65
2023-01-30T05:01:48.360Z,-0.62
2023-01-30T05:04:17.257Z,-0.65
2023-01-30T05:06:45.693Z,-0.66
2023-01-30T05:09:13.891Z,-0.62
2023-01-30T05:11:45.695Z,-0.65
2023-01-30T05:14:14.208Z,-0.61
2023-01-30T05:16:44.384Z,-0.51
2023-01-30T05:19:14.052Z,-0.50
2023-01-30T05:21:42.395Z,-0.46
2023-01-30T05:24:11.134Z,-0.44
2023-01-30T05:26:40.965Z,-0.43
2023-01-30T05:29:11.178Z,-0.48
2023-01-30T05:31:39.307Z,-0.51
2023-01-30T05:34:07.608Z,-0.46
2023-01-30T05:36:35.856Z,-0.45
2023-01-30T05:39:04.260Z,-0.41
2023-01-30T05:41:35.342Z,-0.40
2023-01-30T05:44:03.516Z,-0.38
2023-01-30T05:46:33.401Z,-0.39
2023-01-30T05:49:04.175Z,-0.37
2023-01-30T05:51:32.695Z,-0.21
2023-01-30T05:54:00.717Z,-0.26
2023-01-30T05:56:30.437Z,-0.22
2023-01-30T05:58:58.868Z,-0.19
2023-01-30T06:01:27.999Z,-0.25
2023-01-30T06:03:59.821Z,-0.24
2023-01-30T06:06:28.037Z,-0.16
2023-01-30T06:08:57.380Z,-0.10
2023-01-30T06:11:26.133Z,-0.21
2023-01-30T06:13:54.574Z,-0.20
2023-01-30T06:16:22.740Z,-0.21
2023-01-30T06:18:50.961Z,-0.16
2023-01-30T06:21:20.540Z,-0.10
2023-01-30T06:23:48.752Z,-0.15
2023-01-30T06:26:17.058Z,-0.16
2023-01-30T06:28:45.419Z,-0.11
2023-01-30T06:31:13.783Z,-0.09
2023-01-30T06:33:43.917Z,-0.03
2023-01-30T06:36:12.519Z,-0.05
2023-01-30T06:38:42.491Z,-0.13
2023-01-30T06:41:12.231Z,-0.05
2023-01-30T06:43:40.182Z,-0.05
2023-01-30T06:46:10.295Z,-0.11
2023-01-30T06:48:38.659Z,-0.09
2023-01-30T06:51:07.320Z,-0.11
2023-01-30T06:53:36.513Z,-0.14
2023-01-30T06:56:07.993Z,-0.10
2023-01-30T06:58:37.048Z,-0.04
2023-01-30T07:01:06.715Z,-0.03
2023-01-30T07:03:35.177Z,0.01
2023-01-30T07:06:04.362Z,0.01
2023-01-30T07:08:32.543Z,-0.03
2023-01-30T07:11:00.903Z,-0.08
2023-01-30T07:13:30.320Z,0.02
2023-01-30T07:15:58.564Z,-0.05
2023-01-30T07:18:26.910Z,-0.05
2023-01-30T07:20:55.345Z,-0.07
2023-01-30T07:23:25.158Z,0.01
2023-01-30T07:25:53.746Z,0.02
2023-01-30T07:28:22.336Z,-0.04
2023-01-30T07:30:53.157Z,-0.07
2023-01-30T07:33:23.611Z,-0.02
2023-01-30T07:35:51.861Z,0.03
2023-01-30T07:38:20.308Z,0.05
2023-01-30T07:40:48.713Z,0.05
2023-01-30T07:43:17.070Z,0.12
2023-01-30T07:45:47.948Z,0.16
2023-01-30T07:48:19.887Z,0.20
2023-01-30T07:50:48.780Z,0.12
2023-01-30T07:53:19.227Z,0.11
2023-01-30T07:55:47.550Z,0.20
2023-01-30T07:58:17.029Z,0.12
2023-01-30T08:00:45.751Z,0.06
2023-01-30T08:03:14.960Z,0.09
2023-01-30T08:05:48.286Z,0.11
2023-01-30T08:08:18.037Z,0.07
2023-01-30T08:10:46.188Z,0.04
2023-01-30T08:13:14.771Z,0.10
2023-01-30T08:15:42.914Z,0.07
2023-01-30T08:18:11.033Z,0.12
2023-01-30T08:20:39.327Z,0.13
2023-01-30T08:23:09.196Z,0.09
2023-01-30T08:25:38.037Z,0.13
2023-01-30T08:28:06.176Z,0.20
2023-01-30T08:30:34.557Z,0.17
2023-01-30T08:33:02.753Z,0.25
2023-01-30T08:35:31.535Z,0.23
2023-01-30T08:38:00.264Z,0.32
2023-01-30T08:40:29.869Z,0.33
2023-01-30T08:42:58.101Z,0.31
2023-01-30T08:45:26.343Z,0.32
2023-01-30T08:47:54.520Z,0.26
2023-01-30T08:50:22.981Z,0.28
2023-01-30T08:52:51.237Z,0.35
2023-01-30T08:55:19.465Z,0.35
2023-01-30T08:57:49.603Z,0.42
2023-01-30T09:00:18.832Z,0.37
2023-01-30T09:02:47.325Z,0.45
2023-01-30T09:05:15.651Z,0.35
2023-01-30T09:07:43.850Z,0.36
2023-01-30T09:10:12.724Z,0.43
2023-01-30T09:12:41.450Z,0.43
2023-01-30T09:15:14.632Z,0.43
2023-01-30T09:17:44.634Z,0.47
2023-01-30T09:20:14.023Z,0.43
2023-01-30T09:22:42.233Z,0.42
2023-01-30T09:25:11.104Z,0.45
2023-01-30T09:27:39.685Z,0.56
2023-01-30T09:30:09.644Z,0.49
2023-01-30T09:32:39.521Z,0.50
2023-01-30T09:35:08.871Z,0.54
2023-01-30T09:37:37.379Z,0.56
2023-01-30T09:40:07.051Z,0.54
2023-01-30T09:43:00.476Z,0.55
2023-01-30T09:45:44.376Z,0.51
2023-01-30T09:48:20.842Z,0.61
2023-01-30T09:51:07.379Z,0.76
2023-01-30T09:53:41.434Z,0.75
2023-01-30T09:56:09.711Z,0.82
2023-01-30T09:58:45.587Z,0.82
2023-01-30T10:01:21.545Z,0.90
2023-01-30T10:04:03.072Z,0.96
2023-01-30T10:06:37.910Z,0.93
2023-01-30T10:09:12.314Z,0.92
2023-01-30T10:11:52.202Z,0.91
2023-01-30T10:14:28.845Z,0.99
2023-01-30T10:17:04.487Z,0.95
2023-01-30T10:19:58.248Z,0.94
2023-01-30T10:22:38.762Z,0.98
2023-01-30T10:25:21.649Z,0.92
2023-01-30T10:27:55.755Z,0.94
2023-01-30T10:30:25.867Z,0.92
2023-01-30T10:33:00.116Z,0.94
2023-01-30T10:35:35.477Z,1.06
2023-01-30T10:38:12.763Z,1.12
2023-01-30T10:40:44.247Z,1.17
2023-01-30T10:43:22.183Z,1.22
2023-01-30T10:46:01.428Z,1.24
2023-01-30T10:48:50.183Z,1.39
2023-01-30T10:51:29.519Z,1.39
2023-01-30T10:54:02.095Z,1.54
2023-01-30T10:56:38.113Z,1.68
2023-01-30T10:59:22.517Z,1.69
2023-01-30T11:02:00.055Z,1.88
2023-01-30T11:04:32.811Z,2.48
2023-01-30T11:07:03.134Z,2.85
2023-01-30T11:18:41.039Z,3.02
2023-01-30T11:21:05.175Z,3.03
2023-01-30T11:23:37.071Z,3.05
2023-01-30T11:26:11.333Z,3.09
2023-01-30T11:28:46.400Z,3.17
2023-01-30T11:31:31.618Z,3.20
2023-01-30T11:37:35.208Z,3.70
2023-01-30T11:40:22.048Z,3.78
2023-01-30T11:42:52.925Z,3.75
2023-01-30T11:45:27.028Z,3.86
2023-01-30T11:47:58.791Z,3.95
2023-01-30T11:50:35.326Z,3.99
2023-01-30T11:53:18.664Z,3.92
2023-01-30T11:56:02.178Z,3.94
2023-01-30T11:58:34.049Z,4.03
2023-01-30T12:01:04.148Z,3.98
2023-01-30T12:03:34.776Z,4.04
2023-01-30T12:06:03.077Z,3.98
2023-01-30T12:08:42.102Z,4.02
2023-01-30T12:11:30.079Z,3.99
2023-01-30T12:14:14.089Z,3.90
2023-01-30T12:17:05.500Z,3.93
2023-01-30T12:20:01.251Z,3.91
2023-01-30T12:22:36.952Z,3.99
2023-01-30T12:25:14.933Z,4.02
2023-01-30T12:27:54.167Z,4.19
2023-01-30T12:30:32.462Z,4.29
2023-01-30T12:35:47.697Z,4.13
2023-01-30T12:38:39.493Z,4.02
2023-01-30T12:41:33.216Z,4.02
2023-01-30T12:44:18.741Z,4.14
2023-01-30T12:47:04.626Z,4.39
2023-01-30T12:49:52.615Z,4.59
2023-01-30T12:52:39.861Z,4.71
2023-01-30T12:55:23.153Z,4.85
2023-01-30T12:57:57.947Z,4.82
2023-01-30T13:00:41.620Z,4.88
2023-01-30T13:03:23.848Z,4.83
2023-01-30T13:05:59.535Z,4.87
2023-01-30T13:08:44.982Z,4.81
2023-01-30T13:11:36.794Z,4.93
2023-01-30T13:14:12.162Z,5.14
2023-01-30T13:16:53.610Z,5.14
2023-01-30T13:19:40.488Z,5.17
2023-01-30T13:22:18.587Z,5.06
2023-01-30T13:24:59.815Z,4.94
2023-01-30T13:27:30.844Z,5.07
2023-01-30T13:30:00.895Z,5.06
2023-01-30T13:32:37.590Z,5.12
2023-01-30T13:35:14.839Z,5.24
2023-01-30T13:37:45.974Z,5.29
2023-01-30T13:40:19.538Z,5.25
2023-01-30T13:42:53.240Z,5.34
2023-01-30T13:45:25.755Z,5.26
2023-01-30T13:48:08.118Z,5.17
2023-01-30T13:50:50.221Z,5.13
2023-01-30T13:53:26.457Z,4.97
2023-01-30T13:55:59.099Z,4.99
2023-01-30T13:58:44.392Z,5.04
2023-01-30T14:01:14.376Z,4.94
2023-01-30T14:03:44.524Z,4.85
2023-01-30T14:06:23.020Z,4.86
2023-01-30T14:08:54.988Z,4.70
2023-01-30T14:11:33.864Z,4.68
2023-01-30T14:14:06.849Z,4.79
2023-01-30T14:16:46.605Z,4.65
2023-01-30T14:19:38.358Z,4.58
2023-01-30T14:22:21.299Z,4.41
2023-01-30T14:25:22.988Z,4.40
2023-01-30T14:27:52.787Z,4.39
2023-01-30T14:30:38.863Z,4.39
2023-01-30T14:33:34.189Z,4.34
2023-01-30T14:36:34.344Z,4.27
2023-01-30T14:39:36.948Z,4.37
2023-01-30T14:42:24.573Z,4.36
2023-01-30T14:45:00.893Z,4.38
2023-01-30T14:47:37.545Z,4.28
2023-01-30T14:50:20.593Z,4.34
2023-01-30T14:52:50.573Z,4.41
2023-01-30T14:55:22.279Z,4.34
2023-01-30T14:57:57.448Z,4.34
2023-01-30T15:00:29.333Z,4.38
2023-01-30T15:03:01.366Z,4.41
2023-01-30T15:05:33.760Z,4.51
2023-01-30T15:08:12.735Z,4.51
2023-01-30T15:11:02.491Z,4.60
2023-01-30T15:13:42.104Z,4.72
2023-01-30T15:16:39.412Z,4.73
2023-01-30T15:19:22.975Z,4.73
2023-01-30T15:22:02.890Z,4.70
2023-01-30T15:24:57.610Z,4.63
2023-01-30T15:27:32.062Z,4.58
2023-01-30T15:30:17.461Z,4.56
2023-01-30T15:32:46.423Z,4.51
2023-01-30T15:35:24.684Z,4.50
2023-01-30T15:37:56.235Z,4.41
2023-01-30T15:40:27.396Z,4.38
2023-01-30T15:43:13.198Z,4.34
2023-01-30T15:45:51.846Z,4.14
2023-01-30T15:48:34.607Z,4.15
2023-01-30T15:51:04.077Z,4.13
2023-01-30T15:53:36.394Z,4.04
2023-01-30T15:56:10.801Z,3.98
2023-01-30T15:58:41.839Z,3.90
2023-01-30T16:01:15.530Z,3.85
2023-01-30T16:03:44.906Z,3.83
2023-01-30T16:06:25.111Z,3.80
2023-01-30T16:08:58.440Z,3.72
2023-01-30T16:11:41.031Z,3.64
2023-01-30T16:14:14.436Z,3.54
2023-01-30T16:16:50.054Z,3.41
2023-01-30T16:19:26.583Z,3.31
2023-01-30T16:21:58.043Z,3.38
2023-01-30T16:24:29.557Z,3.28
2023-01-30T16:27:02.386Z,3.26
2023-01-30T16:29:33.280Z,3.35
2023-01-30T16:32:12.638Z,3.31
2023-01-30T16:34:42.644Z,3.21
2023-01-30T16:37:26.813Z,3.19
2023-01-30T16:40:05.800Z,3.08
2023-01-30T16:42:34.179Z,3.06
2023-01-30T16:45:43.268Z,3.13
2023-01-30T16:48:40.416Z,3.05
2023-01-30T16:51:24.304Z,2.94
2023-01-30T16:53:58.054Z,2.97
2023-01-30T16:56:26.895Z,2.98
2023-01-30T16:58:58.720Z,3.04
2023-01-30T17:01:41.310Z,3.06
2023-01-30T17:04:21.305Z,3.03
2023-01-30T17:06:57.316Z,3.11
2023-01-30T17:09:47.303Z,3.05
2023-01-30T17:12:38.504Z,3.06
2023-01-30T17:15:35.717Z,3.13
2023-01-30T17:18:04.132Z,3.13
2023-01-30T17:20:40.007Z,3.20
2023-01-30T17:23:11.285Z,3.18
2023-01-30T17:25:43.920Z,3.20
2023-01-30T17:28:21.139Z,3.25
2023-01-30T17:30:50.269Z,3.18
2023-01-30T17:33:18.926Z,3.21
2023-01-30T17:35:49.270Z,3.25
2023-01-30T17:38:17.514Z,3.31
2023-01-30T17:40:46.088Z,3.26
2023-01-30T17:43:15.739Z,3.30
2023-01-30T17:45:44.279Z,3.24
2023-01-30T17:48:13.814Z,3.28
2023-01-30T17:50:42.798Z,3.26
2023-01-30T17:53:12.634Z,3.19
2023-01-30T17:55:40.900Z,3.25
2023-01-30T17:58:16.917Z,3.22
2023-01-30T18:00:45.731Z,3.17
2023-01-30T18:03:14.858Z,3.13
2023-01-30T18:05:43.722Z,3.03
2023-01-30T18:08:15.147Z,3.05
2023-01-30T18:10:43.524Z,2.98
2023-01-30T18:13:11.749Z,2.88
2023-01-30T18:15:40.141Z,2.81
2023-01-30T18:18:12.977Z,2.80
2023-01-30T18:20:41.577Z,2.79
2023-01-30T18:23:11.087Z,2.75
2023-01-30T18:25:41.235Z,2.71
2023-01-30T18:28:12.981Z,2.74
2023-01-30T18:30:42.045Z,2.70
2023-01-30T18:33:10.673Z,2.70
2023-01-30T18:35:39.104Z,2.82
2023-01-30T18:38:07.252Z,2.85
2023-01-30T18:40:35.725Z,2.94
2023-01-30T18:43:05.261Z,2.91
2023-01-30T18:45:34.539Z,2.96
2023-01-30T18:48:05.140Z,3.03
2023-01-30T18:50:33.472Z,3.13
2023-01-30T18:53:01.522Z,3.19
2023-01-30T18:55:30.061Z,3.21
2023-01-30T18:57:59.743Z,3.25
2023-01-30T19:00:29.236Z,3.36
2023-01-30T19:02:57.483Z,3.25
2023-01-30T19:05:25.594Z,3.30
2023-01-30T19:07:55.627Z,3.31
2023-01-30T19:10:24.175Z,3.30
2023-01-30T19:13:10.466Z,3.25
2023-01-30T19:15:40.225Z,3.27
2023-01-30T19:18:08.450Z,3.27
2023-01-30T19:20:37.750Z,3.34
2023-01-30T19:23:05.907Z,3.35
2023-01-30T19:25:34.486Z,3.28
2023-01-30T19:28:03.012Z,3.14
2023-01-30T19:30:31.662Z,3.01
2023-01-30T19:33:01.517Z,2.98
2023-01-30T19:35:29.777Z,2.82
2023-01-30T19:38:00.396Z,2.72
2023-01-30T19:40:28.812Z,2.78
2023-01-30T19:43:09.359Z,2.68
2023-01-30T19:45:39.125Z,2.68
2023-01-30T19:48:16.064Z,2.64
2023-01-30T19:50:52.661Z,2.57
2023-01-30T19:53:21.114Z,2.58
2023-01-30T19:55:53.590Z,2.56
2023-01-30T19:58:28.675Z,2.61
2023-01-30T20:01:06.406Z,2.59
2023-01-30T20:03:45.537Z,2.63
2023-01-30T20:06:19.038Z,2.64
2023-01-30T20:08:54.219Z,2.73
2023-01-30T20:11:28.793Z,2.71
2023-01-30T20:14:01.351Z,2.68
2023-01-30T20:16:35.609Z,2.72
2023-01-30T20:19:16.444Z,2.73
2023-01-30T20:21:53.197Z,2.66
2023-01-30T20:24:29.169Z,2.67
2023-01-30T20:27:14.741Z,2.72
2023-01-30T20:29:46.705Z,2.71
2023-01-30T20:32:36.916Z,2.87
2023-01-30T20:35:13.326Z,2.79
2023-01-30T20:37:53.531Z,2.83
2023-01-30T20:40:26.645Z,2.73
2023-01-30T20:42:54.823Z,2.70
2023-01-30T20:45:33.790Z,2.69
2023-01-30T20:48:05.778Z,2.64
2023-01-30T20:50:35.288Z,2.63
2023-01-30T20:53:05.691Z,2.65
2023-01-30T20:55:41.780Z,2.63
2023-01-30T20:58:15.760Z,2.72
2023-01-30T21:00:48.135Z,2.66
2023-01-30T21:03:20.144Z,2.64
2023-01-30T21:05:58.180Z,2.65
2023-01-30T21:08:34.601Z,2.67
2023-01-30T21:11:13.568Z,2.69
2023-01-30T21:13:46.850Z,2.62
2023-01-30T21:16:20.223Z,2.55
2023-01-30T21:19:02.293Z,2.53
2023-01-30T21:21:37.831Z,2.49
2023-01-30T21:24:17.185Z,2.51
2023-01-30T21:26:52.799Z,2.52
2023-01-30T21:29:28.904Z,2.53
2023-01-30T21:31:58.743Z,2.49
2023-01-30T21:34:33.465Z,2.46
2023-01-30T21:37:21.038Z,2.50
2023-01-30T21:40:06.681Z,2.49
2023-01-30T21:42:52.241Z,2.46
2023-01-30T21:45:21.944Z,2.46
2023-01-30T21:47:54.503Z,2.50
2023-01-30T21:50:25.165Z,2.49
2023-01-30T21:52:55.140Z,2.51
2023-01-30T21:55:25.529Z,2.61
2023-01-30T21:58:01.117Z,2.57
2023-01-30T22:00:29.299Z,2.54
2023-01-30T22:02:57.602Z,2.62
2023-01-30T22:05:26.086Z,2.57
2023-01-30T22:07:55.882Z,2.61
2023-01-30T22:10:24.921Z,2.60
2023-01-30T22:12:53.677Z,2.71
2023-01-30T22:15:23.619Z,2.72
2023-01-30T22:17:55.257Z,2.72
2023-01-30T22:20:27.051Z,2.72
2023-01-30T22:22:56.686Z,2.71
2023-01-30T22:25:26.014Z,2.73
2023-01-30T22:27:54.392Z,2.77
2023-01-30T22:30:22.739Z,2.88
2023-01-30T22:32:55.985Z,2.83
2023-01-30T22:35:27.000Z,2.78
2023-01-30T22:37:56.536Z,2.90
2023-01-30T22:40:24.833Z,2.88
2023-01-30T22:42:53.239Z,2.86
2023-01-30T22:45:24.076Z,2.85
2023-01-30T22:47:52.985Z,2.83
2023-01-30T22:50:21.454Z,2.88
2023-01-30T22:52:49.983Z,2.88
2023-01-30T22:55:20.061Z,2.86
2023-01-30T22:57:48.550Z,2.84
2023-01-30T23:00:18.022Z,2.82
2023-01-30T23:02:46.342Z,2.82
2023-01-30T23:05:15.037Z,2.77
2023-01-30T23:07:44.321Z,2.78
2023-01-30T23:10:12.745Z,2.79
2023-01-30T23:12:59.887Z,2.75
2023-01-30T23:15:29.214Z,2.69
2023-01-30T23:18:17.796Z,2.66
2023-01-30T23:20:46.192Z,2.71
2023-01-30T23:23:16.283Z,2.64
2023-01-30T23:25:45.179Z,2.63
2023-01-30T23:28:18.138Z,2.63
2023-01-30T23:30:49.562Z,2.57
2023-01-30T23:33:18.184Z,2.59
2023-01-30T23:35:51.314Z,2.58
2023-01-30T23:38:24.237Z,2.61
2023-01-30T23:40:52.535Z,2.65
2023-01-30T23:43:22.207Z,2.57
2023-01-30T23:45:53.998Z,2.50
2023-01-30T23:48:22.845Z,2.54
2023-01-30T23:50:51.391Z,2.44
2023-01-30T23:53:19.534Z,2.39
2023-01-30T23:55:54.143Z,2.33
2023-01-30T23:58:23.920Z,2.32
